sensor_id;sensor_type;location;lat;lon;timestamp;pressure;altitude;pressure_sealevel;temperature;humidity
49709;BME280;35601;55.902;13.606;2023-04-19T00:00:47;102565.60;;;2.84;41.63
49709;BME280;35601;55.902;13.606;2023-04-19T00:03:12;102558.71;;;2.92;42.22
49709;BME280;35601;55.902;13.606;2023-04-19T00:05:38;102557.58;;;2.89;42.23
49709;BME280;35601;55.902;13.606;2023-04-19T00:08:03;102555.60;;;2.86;42.21
49709;BME280;35601;55.902;13.606;2023-04-19T00:10:28;102555.05;;;2.96;42.90
49709;BME280;35601;55.902;13.606;2023-04-19T00:12:55;102548.95;;;2.40;43.08
49709;BME280;35601;55.902;13.606;2023-04-19T00:15:19;102550.22;;;2.66;43.14
49709;BME280;35601;55.902;13.606;2023-04-19T00:17:44;102547.77;;;2.48;43.04
49709;BME280;35601;55.902;13.606;2023-04-19T00:20:12;102545.78;;;2.49;43.07
49709;BME280;35601;55.902;13.606;2023-04-19T00:22:35;102540.23;;;2.13;43.51
49709;BME280;35601;55.902;13.606;2023-04-19T00:25:01;102540.71;;;2.21;43.87
49709;BME280;35601;55.902;13.606;2023-04-19T00:27:27;102538.51;;;2.14;44.03
49709;BME280;35601;55.902;13.606;2023-04-19T00:29:51;102533.77;;;2.26;44.68
49709;BME280;35601;55.902;13.606;2023-04-19T00:32:17;102532.10;;;1.95;44.64
49709;BME280;35601;55.902;13.606;2023-04-19T00:34:42;102530.41;;;2.13;44.71
49709;BME280;35601;55.902;13.606;2023-04-19T00:37:08;102531.14;;;2.28;44.67
49709;BME280;35601;55.902;13.606;2023-04-19T00:39:33;102524.15;;;2.02;44.81
49709;BME280;35601;55.902;13.606;2023-04-19T00:41:58;102523.05;;;1.93;44.93
49709;BME280;35601;55.902;13.606;2023-04-19T00:44:23;102521.93;;;1.94;45.13
49709;BME280;35601;55.902;13.606;2023-04-19T00:46:49;102518.91;;;1.83;45.28
49709;BME280;35601;55.902;13.606;2023-04-19T00:49:14;102517.22;;;1.90;45.75
49709;BME280;35601;55.902;13.606;2023-04-19T00:51:39;102514.48;;;1.91;46.09
49709;BME280;35601;55.902;13.606;2023-04-19T00:54:05;102512.63;;;1.79;45.88
49709;BME280;35601;55.902;13.606;2023-04-19T00:56:32;102512.12;;;1.84;45.75
49709;BME280;35601;55.902;13.606;2023-04-19T00:58:56;102507.22;;;1.77;46.08
49709;BME280;35601;55.902;13.606;2023-04-19T01:01:21;102504.29;;;1.52;46.18
49709;BME280;35601;55.902;13.606;2023-04-19T01:03:46;102503.05;;;1.76;46.22
49709;BME280;35601;55.902;13.606;2023-04-19T01:06:12;102501.08;;;1.71;46.48
49709;BME280;35601;55.902;13.606;2023-04-19T01:08:37;102501.78;;;1.67;46.46
49709;BME280;35601;55.902;13.606;2023-04-19T01:11:04;102502.17;;;1.61;46.68
49709;BME280;35601;55.902;13.606;2023-04-19T01:13:28;102502.21;;;1.80;46.87
49709;BME280;35601;55.902;13.606;2023-04-19T01:15:54;102500.71;;;1.71;46.76
49709;BME280;35601;55.902;13.606;2023-04-19T01:18:19;102500.75;;;1.70;46.60
49709;BME280;35601;55.902;13.606;2023-04-19T01:20:44;102497.74;;;1.77;46.54
49709;BME280;35601;55.902;13.606;2023-04-19T01:23:10;102497.13;;;1.69;46.78
49709;BME280;35601;55.902;13.606;2023-04-19T01:25:35;102496.48;;;1.72;47.00
49709;BME280;35601;55.902;13.606;2023-04-19T01:28:00;102497.84;;;1.80;46.60
49709;BME280;35601;55.902;13.606;2023-04-19T01:30:26;102498.75;;;1.80;46.68
49709;BME280;35601;55.902;13.606;2023-04-19T01:32:51;102494.54;;;1.76;46.57
49709;BME280;35601;55.902;13.606;2023-04-19T01:35:17;102493.55;;;1.82;46.56
49709;BME280;35601;55.902;13.606;2023-04-19T01:37:42;102487.60;;;1.83;46.53
49709;BME280;35601;55.902;13.606;2023-04-19T01:40:08;102486.09;;;1.80;46.49
49709;BME280;35601;55.902;13.606;2023-04-19T01:42:33;102486.93;;;1.58;46.53
49709;BME280;35601;55.902;13.606;2023-04-19T01:44:58;102482.77;;;1.84;46.73
49709;BME280;35601;55.902;13.606;2023-04-19T01:47:24;102474.26;;;1.84;46.68
49709;BME280;35601;55.902;13.606;2023-04-19T01:49:49;102473.91;;;1.76;46.91
49709;BME280;35601;55.902;13.606;2023-04-19T01:52:14;102471.24;;;1.85;46.64
49709;BME280;35601;55.902;13.606;2023-04-19T01:54:40;102462.32;;;2.22;46.83
49709;BME280;35601;55.902;13.606;2023-04-19T01:57:05;102459.18;;;1.74;46.95
49709;BME280;35601;55.902;13.606;2023-04-19T01:59:30;102455.90;;;1.74;46.84
49709;BME280;35601;55.902;13.606;2023-04-19T02:01:56;102454.55;;;1.70;47.10
49709;BME280;35601;55.902;13.606;2023-04-19T02:04:21;102451.99;;;1.75;47.16
49709;BME280;35601;55.902;13.606;2023-04-19T02:06:47;102449.95;;;1.91;47.11
49709;BME280;35601;55.902;13.606;2023-04-19T02:09:12;102446.22;;;1.90;46.81
49709;BME280;35601;55.902;13.606;2023-04-19T02:11:38;102443.18;;;1.92;46.83
49709;BME280;35601;55.902;13.606;2023-04-19T02:14:04;102435.13;;;1.94;46.81
49709;BME280;35601;55.902;13.606;2023-04-19T02:16:29;102437.56;;;1.75;47.24
49709;BME280;35601;55.902;13.606;2023-04-19T02:18:53;102434.52;;;1.78;47.28
49709;BME280;35601;55.902;13.606;2023-04-19T02:21:19;102433.45;;;1.54;47.27
49709;BME280;35601;55.902;13.606;2023-04-19T02:23:45;102433.74;;;1.76;47.39
49709;BME280;35601;55.902;13.606;2023-04-19T02:26:10;102427.91;;;1.79;47.26
49709;BME280;35601;55.902;13.606;2023-04-19T02:28:36;102429.39;;;1.88;47.11
49709;BME280;35601;55.902;13.606;2023-04-19T02:31:05;102425.38;;;1.86;47.42
49709;BME280;35601;55.902;13.606;2023-04-19T02:33:26;102422.51;;;1.77;47.21
49709;BME280;35601;55.902;13.606;2023-04-19T02:35:51;102419.23;;;1.59;47.70
49709;BME280;35601;55.902;13.606;2023-04-19T02:38:16;102418.03;;;1.38;47.55
49709;BME280;35601;55.902;13.606;2023-04-19T02:40:42;102418.70;;;1.87;47.50
49709;BME280;35601;55.902;13.606;2023-04-19T02:43:07;102414.88;;;1.60;47.66
49709;BME280;35601;55.902;13.606;2023-04-19T02:45:32;102412.88;;;1.46;47.19
49709;BME280;35601;55.902;13.606;2023-04-19T02:47:58;102410.41;;;1.67;47.21
49709;BME280;35601;55.902;13.606;2023-04-19T02:50:26;102407.19;;;1.57;47.34
49709;BME280;35601;55.902;13.606;2023-04-19T02:52:50;102406.48;;;1.60;47.99
49709;BME280;35601;55.902;13.606;2023-04-19T02:55:15;102404.42;;;1.59;47.72
49709;BME280;35601;55.902;13.606;2023-04-19T02:57:39;102402.44;;;1.56;47.67
49709;BME280;35601;55.902;13.606;2023-04-19T03:00:06;102400.75;;;1.51;47.72
49709;BME280;35601;55.902;13.606;2023-04-19T03:02:30;102400.94;;;1.49;48.15
49709;BME280;35601;55.902;13.606;2023-04-19T03:04:55;102400.16;;;1.47;48.00
49709;BME280;35601;55.902;13.606;2023-04-19T03:07:21;102401.09;;;1.26;48.51
49709;BME280;35601;55.902;13.606;2023-04-19T03:09:46;102397.71;;;1.55;48.82
49709;BME280;35601;55.902;13.606;2023-04-19T03:12:11;102393.71;;;1.33;48.59
49709;BME280;35601;55.902;13.606;2023-04-19T03:14:39;102391.88;;;1.58;48.57
49709;BME280;35601;55.902;13.606;2023-04-19T03:17:02;102391.81;;;1.29;48.49
49709;BME280;35601;55.902;13.606;2023-04-19T03:19:28;102391.72;;;1.33;48.62
49709;BME280;35601;55.902;13.606;2023-04-19T03:21:53;102391.83;;;1.26;48.99
49709;BME280;35601;55.902;13.606;2023-04-19T03:24:18;102389.56;;;1.36;49.55
49709;BME280;35601;55.902;13.606;2023-04-19T03:26:46;102393.01;;;1.25;50.01
49709;BME280;35601;55.902;13.606;2023-04-19T03:29:09;102389.37;;;0.92;49.84
49709;BME280;35601;55.902;13.606;2023-04-19T03:31:35;102387.65;;;1.23;50.10
49709;BME280;35601;55.902;13.606;2023-04-19T03:34:00;102385.63;;;1.07;50.56
49709;BME280;35601;55.902;13.606;2023-04-19T03:36:25;102384.64;;;1.27;50.79
49709;BME280;35601;55.902;13.606;2023-04-19T03:38:51;102382.95;;;1.25;50.95
49709;BME280;35601;55.902;13.606;2023-04-19T03:41:18;102382.23;;;1.27;50.94
49709;BME280;35601;55.902;13.606;2023-04-19T03:43:41;102381.61;;;1.18;51.13
49709;BME280;35601;55.902;13.606;2023-04-19T03:46:07;102382.48;;;1.23;51.32
49709;BME280;35601;55.902;13.606;2023-04-19T03:48:32;102379.64;;;1.06;51.08
49709;BME280;35601;55.902;13.606;2023-04-19T03:50:58;102381.41;;;1.16;51.43
49709;BME280;35601;55.902;13.606;2023-04-19T03:53:24;102378.22;;;1.02;51.82
49709;BME280;35601;55.902;13.606;2023-04-19T03:55:49;102377.43;;;1.03;51.93
49709;BME280;35601;55.902;13.606;2023-04-19T03:58:14;102376.60;;;1.25;51.91
49709;BME280;35601;55.902;13.606;2023-04-19T04:00:39;102379.32;;;0.97;52.15
49709;BME280;35601;55.902;13.606;2023-04-19T04:03:04;102377.03;;;0.91;52.30
49709;BME280;35601;55.902;13.606;2023-04-19T04:05:31;102381.36;;;1.14;52.61
49709;BME280;35601;55.902;13.606;2023-04-19T04:07:55;102382.02;;;0.94;52.57
49709;BME280;35601;55.902;13.606;2023-04-19T04:10:21;102377.15;;;0.95;52.65
49709;BME280;35601;55.902;13.606;2023-04-19T04:12:47;102378.83;;;0.90;52.73
49709;BME280;35601;55.902;13.606;2023-04-19T04:15:11;102378.01;;;1.19;52.47
49709;BME280;35601;55.902;13.606;2023-04-19T04:17:37;102377.23;;;1.11;52.86
49709;BME280;35601;55.902;13.606;2023-04-19T04:20:03;102371.81;;;0.91;52.76
49709;BME280;35601;55.902;13.606;2023-04-19T04:22:28;102370.97;;;0.95;52.80
49709;BME280;35601;55.902;13.606;2023-04-19T04:24:53;102367.57;;;1.42;52.87
49709;BME280;35601;55.902;13.606;2023-04-19T04:27:18;102369.23;;;0.81;52.94
49709;BME280;35601;55.902;13.606;2023-04-19T04:29:44;102366.63;;;0.52;53.16
49709;BME280;35601;55.902;13.606;2023-04-19T04:32:09;102365.70;;;0.92;52.47
49709;BME280;35601;55.902;13.606;2023-04-19T04:34:35;102364.61;;;1.35;52.59
49709;BME280;35601;55.902;13.606;2023-04-19T04:37:00;102361.57;;;1.10;53.00
49709;BME280;35601;55.902;13.606;2023-04-19T04:39:25;102363.49;;;1.15;52.80
49709;BME280;35601;55.902;13.606;2023-04-19T04:41:51;102364.05;;;1.10;52.96
49709;BME280;35601;55.902;13.606;2023-04-19T04:44:16;102362.76;;;1.24;52.82
49709;BME280;35601;55.902;13.606;2023-04-19T04:46:41;102367.38;;;1.37;53.40
49709;BME280;35601;55.902;13.606;2023-04-19T04:49:07;102368.44;;;1.30;53.41
49709;BME280;35601;55.902;13.606;2023-04-19T04:51:33;102370.80;;;1.22;53.18
49709;BME280;35601;55.902;13.606;2023-04-19T04:53:58;102368.07;;;1.16;53.01
49709;BME280;35601;55.902;13.606;2023-04-19T04:56:23;102370.71;;;1.55;52.73
49709;BME280;35601;55.902;13.606;2023-04-19T04:58:48;102375.44;;;1.83;51.73
49709;BME280;35601;55.902;13.606;2023-04-19T05:01:14;102372.84;;;1.97;51.35
49709;BME280;35601;55.902;13.606;2023-04-19T05:03:39;102372.20;;;1.97;51.30
49709;BME280;35601;55.902;13.606;2023-04-19T05:06:05;102373.55;;;1.98;51.03
49709;BME280;35601;55.902;13.606;2023-04-19T05:08:30;102376.34;;;2.32;50.54
49709;BME280;35601;55.902;13.606;2023-04-19T05:10:55;102375.75;;;2.40;50.56
49709;BME280;35601;55.902;13.606;2023-04-19T05:13:21;102378.03;;;2.54;50.00
49709;BME280;35601;55.902;13.606;2023-04-19T05:15:46;102377.45;;;2.52;49.66
49709;BME280;35601;55.902;13.606;2023-04-19T05:18:11;102376.96;;;2.64;49.83
49709;BME280;35601;55.902;13.606;2023-04-19T05:20:37;102378.03;;;2.52;48.96
49709;BME280;35601;55.902;13.606;2023-04-19T05:23:03;102378.41;;;2.51;48.72
49709;BME280;35601;55.902;13.606;2023-04-19T05:25:28;102374.86;;;2.94;47.98
49709;BME280;35601;55.902;13.606;2023-04-19T05:27:53;102379.32;;;3.08;48.02
49709;BME280;35601;55.902;13.606;2023-04-19T05:30:18;102372.92;;;3.34;47.02
49709;BME280;35601;55.902;13.606;2023-04-19T05:32:46;102372.73;;;2.88;46.67
49709;BME280;35601;55.902;13.606;2023-04-19T05:35:09;102374.33;;;3.30;46.89
49709;BME280;35601;55.902;13.606;2023-04-19T05:37:34;102373.54;;;3.46;46.73
49709;BME280;35601;55.902;13.606;2023-04-19T05:39:59;102372.98;;;3.58;46.61
49709;BME280;35601;55.902;13.606;2023-04-19T05:42:25;102369.33;;;3.36;45.79
49709;BME280;35601;55.902;13.606;2023-04-19T05:44:50;102374.87;;;3.55;45.96
49709;BME280;35601;55.902;13.606;2023-04-19T05:47:16;102370.61;;;3.40;46.22
49709;BME280;35601;55.902;13.606;2023-04-19T05:49:42;102364.23;;;3.62;45.37
49709;BME280;35601;55.902;13.606;2023-04-19T05:52:06;102363.67;;;3.78;45.05
49709;BME280;35601;55.902;13.606;2023-04-19T05:54:32;102359.25;;;3.73;45.32
49709;BME280;35601;55.902;13.606;2023-04-19T05:56:57;102357.68;;;4.40;44.63
49709;BME280;35601;55.902;13.606;2023-04-19T05:59:22;102362.69;;;4.03;44.45
49709;BME280;35601;55.902;13.606;2023-04-19T06:01:48;102362.38;;;4.12;44.07
49709;BME280;35601;55.902;13.606;2023-04-19T06:04:13;102368.90;;;4.52;43.36
49709;BME280;35601;55.902;13.606;2023-04-19T06:06:39;102370.26;;;4.38;43.17
49709;BME280;35601;55.902;13.606;2023-04-19T06:09:04;102369.87;;;4.58;42.83
49709;BME280;35601;55.902;13.606;2023-04-19T06:11:29;102369.68;;;4.95;42.57
49709;BME280;35601;55.902;13.606;2023-04-19T06:13:54;102368.80;;;4.60;42.37
49709;BME280;35601;55.902;13.606;2023-04-19T06:16:20;102367.21;;;4.65;42.42
49709;BME280;35601;55.902;13.606;2023-04-19T06:18:45;102372.05;;;4.63;41.69
49709;BME280;35601;55.902;13.606;2023-04-19T06:21:10;102374.23;;;4.47;42.10
49709;BME280;35601;55.902;13.606;2023-04-19T06:23:36;102368.19;;;5.05;41.38
49709;BME280;35601;55.902;13.606;2023-04-19T06:26:01;102370.78;;;4.80;40.11
49709;BME280;35601;55.902;13.606;2023-04-19T06:28:26;102366.02;;;5.38;40.22
49709;BME280;35601;55.902;13.606;2023-04-19T06:30:51;102365.44;;;5.30;40.33
49709;BME280;35601;55.902;13.606;2023-04-19T06:33:17;102366.15;;;5.41;39.71
49709;BME280;35601;55.902;13.606;2023-04-19T06:35:42;102365.70;;;5.51;39.28
49709;BME280;35601;55.902;13.606;2023-04-19T06:38:07;102362.57;;;5.52;39.16
49709;BME280;35601;55.902;13.606;2023-04-19T06:40:33;102358.26;;;6.00;38.39
49709;BME280;35601;55.902;13.606;2023-04-19T06:42:58;102353.23;;;5.87;38.43
49709;BME280;35601;55.902;13.606;2023-04-19T06:45:23;102349.46;;;5.95;38.09
49709;BME280;35601;55.902;13.606;2023-04-19T06:47:49;102362.56;;;5.78;38.22
49709;BME280;35601;55.902;13.606;2023-04-19T06:50:15;102361.67;;;5.59;38.87
49709;BME280;35601;55.902;13.606;2023-04-19T06:52:39;102356.01;;;5.49;37.65
49709;BME280;35601;55.902;13.606;2023-04-19T06:55:05;102356.17;;;5.38;38.00
49709;BME280;35601;55.902;13.606;2023-04-19T06:57:30;102356.78;;;5.95;37.90
49709;BME280;35601;55.902;13.606;2023-04-19T06:59:55;102352.27;;;6.48;38.21
49709;BME280;35601;55.902;13.606;2023-04-19T07:02:20;102358.42;;;6.35;36.28
49709;BME280;35601;55.902;13.606;2023-04-19T07:04:46;102355.49;;;6.11;36.15
49709;BME280;35601;55.902;13.606;2023-04-19T07:07:11;102354.87;;;6.29;35.33
49709;BME280;35601;55.902;13.606;2023-04-19T07:09:36;102350.73;;;6.74;35.33
49709;BME280;35601;55.902;13.606;2023-04-19T07:12:02;102355.60;;;7.27;35.10
49709;BME280;35601;55.902;13.606;2023-04-19T07:14:27;102351.68;;;7.53;33.86
49709;BME280;35601;55.902;13.606;2023-04-19T07:16:53;102347.22;;;7.40;32.89
49709;BME280;35601;55.902;13.606;2023-04-19T07:19:18;102342.22;;;7.21;32.07
49709;BME280;35601;55.902;13.606;2023-04-19T07:21:43;102333.57;;;7.60;31.49
49709;BME280;35601;55.902;13.606;2023-04-19T07:24:08;102334.60;;;7.62;31.49
49709;BME280;35601;55.902;13.606;2023-04-19T07:26:34;102339.90;;;7.95;30.69
49709;BME280;35601;55.902;13.606;2023-04-19T07:29:00;102338.21;;;7.92;29.88
49709;BME280;35601;55.902;13.606;2023-04-19T07:31:24;102327.13;;;8.06;29.71
49709;BME280;35601;55.902;13.606;2023-04-19T07:33:51;102333.18;;;8.24;28.97
49709;BME280;35601;55.902;13.606;2023-04-19T07:36:16;102328.97;;;8.16;28.28
49709;BME280;35601;55.902;13.606;2023-04-19T07:38:39;102336.91;;;7.91;28.46
49709;BME280;35601;55.902;13.606;2023-04-19T07:41:05;102328.08;;;8.23;27.49
49709;BME280;35601;55.902;13.606;2023-04-19T07:43:32;102325.80;;;8.64;27.30
49709;BME280;35601;55.902;13.606;2023-04-19T07:45:55;102324.21;;;8.08;27.28
49709;BME280;35601;55.902;13.606;2023-04-19T07:48:20;102318.01;;;8.45;27.95
49709;BME280;35601;55.902;13.606;2023-04-19T07:50:46;102324.79;;;8.94;28.07
49709;BME280;35601;55.902;13.606;2023-04-19T07:53:11;102323.71;;;8.58;27.65
49709;BME280;35601;55.902;13.606;2023-04-19T07:55:36;102315.26;;;9.14;26.89
49709;BME280;35601;55.902;13.606;2023-04-19T07:58:01;102314.17;;;9.32;27.07
49709;BME280;35601;55.902;13.606;2023-04-19T08:00:27;102313.64;;;9.14;26.71
49709;BME280;35601;55.902;13.606;2023-04-19T08:02:52;102314.17;;;9.17;25.91
49709;BME280;35601;55.902;13.606;2023-04-19T08:05:18;102306.53;;;9.36;25.27
49709;BME280;35601;55.902;13.606;2023-04-19T08:07:43;102312.54;;;9.49;25.10
49709;BME280;35601;55.902;13.606;2023-04-19T08:10:09;102312.30;;;8.96;25.18
49709;BME280;35601;55.902;13.606;2023-04-19T08:12:34;102305.66;;;9.20;24.98
49709;BME280;35601;55.902;13.606;2023-04-19T08:14:59;102306.69;;;9.12;24.65
49709;BME280;35601;55.902;13.606;2023-04-19T08:17:24;102310.38;;;8.59;25.09
49709;BME280;35601;55.902;13.606;2023-04-19T08:19:50;102300.36;;;8.97;24.95
49709;BME280;35601;55.902;13.606;2023-04-19T08:22:14;102294.64;;;9.39;24.61
49709;BME280;35601;55.902;13.606;2023-04-19T08:24:40;102302.33;;;9.34;24.96
49709;BME280;35601;55.902;13.606;2023-04-19T08:27:05;102300.08;;;9.04;25.27
49709;BME280;35601;55.902;13.606;2023-04-19T08:29:30;102308.42;;;8.57;25.59
49709;BME280;35601;55.902;13.606;2023-04-19T08:31:55;102302.26;;;9.46;25.77
49709;BME280;35601;55.902;13.606;2023-04-19T08:34:21;102296.35;;;9.43;25.52
49709;BME280;35601;55.902;13.606;2023-04-19T08:36:46;102293.77;;;9.30;25.53
49709;BME280;35601;55.902;13.606;2023-04-19T08:39:11;102294.75;;;9.62;25.21
49709;BME280;35601;55.902;13.606;2023-04-19T08:41:37;102288.61;;;8.92;25.37
49709;BME280;35601;55.902;13.606;2023-04-19T08:44:02;102276.84;;;8.97;24.68
49709;BME280;35601;55.902;13.606;2023-04-19T08:46:30;102287.71;;;9.90;24.94
49709;BME280;35601;55.902;13.606;2023-04-19T08:48:54;102279.50;;;10.38;25.34
49709;BME280;35601;55.902;13.606;2023-04-19T08:51:18;102287.26;;;10.82;24.77
49709;BME280;35601;55.902;13.606;2023-04-19T08:53:43;102279.53;;;10.81;23.47
49709;BME280;35601;55.902;13.606;2023-04-19T08:56:09;102279.58;;;10.06;22.98
49709;BME280;35601;55.902;13.606;2023-04-19T08:58:33;102279.02;;;10.08;23.71
49709;BME280;35601;55.902;13.606;2023-04-19T09:00:59;102276.04;;;9.93;23.74
49709;BME280;35601;55.902;13.606;2023-04-19T09:03:24;102271.87;;;9.79;23.43
49709;BME280;35601;55.902;13.606;2023-04-19T09:05:50;102267.92;;;10.06;23.89
49709;BME280;35601;55.902;13.606;2023-04-19T09:08:22;102263.06;;;10.47;23.29
49709;BME280;35601;55.902;13.606;2023-04-19T09:13:06;102268.64;;;10.16;22.89
49709;BME280;35601;55.902;13.606;2023-04-19T09:15:35;102261.92;;;9.88;22.97
49709;BME280;35601;55.902;13.606;2023-04-19T09:18:02;102264.86;;;9.44;22.78
49709;BME280;35601;55.902;13.606;2023-04-19T09:27:37;102250.56;;;10.49;23.09
49709;BME280;35601;55.902;13.606;2023-04-19T09:30:03;102250.79;;;10.08;23.42
49709;BME280;35601;55.902;13.606;2023-04-19T09:32:28;102253.05;;;10.22;23.14
49709;BME280;35601;55.902;13.606;2023-04-19T09:34:54;102241.93;;;10.05;23.49
49709;BME280;35601;55.902;13.606;2023-04-19T09:37:19;102244.34;;;10.26;23.20
49709;BME280;35601;55.902;13.606;2023-04-19T09:39:43;102226.82;;;10.58;23.53
49709;BME280;35601;55.902;13.606;2023-04-19T09:42:08;102234.21;;;9.98;23.38
49709;BME280;35601;55.902;13.606;2023-04-19T09:44:34;102227.37;;;10.18;23.62
49709;BME280;35601;55.902;13.606;2023-04-19T09:46:59;102236.12;;;10.49;24.24
49709;BME280;35601;55.902;13.606;2023-04-19T09:49:24;102234.35;;;10.40;23.51
49709;BME280;35601;55.902;13.606;2023-04-19T09:51:51;102236.56;;;10.28;23.50
49709;BME280;35601;55.902;13.606;2023-04-19T09:54:16;102229.68;;;9.96;23.11
49709;BME280;35601;55.902;13.606;2023-04-19T09:56:40;102233.33;;;11.31;23.23
49709;BME280;35601;55.902;13.606;2023-04-19T09:59:08;102228.45;;;10.71;22.34
49709;BME280;35601;55.902;13.606;2023-04-19T10:01:34;102216.78;;;11.21;22.75
49709;BME280;35601;55.902;13.606;2023-04-19T10:03:56;102221.52;;;11.75;21.95
49709;BME280;35601;55.902;13.606;2023-04-19T10:06:22;102212.50;;;11.65;21.68
49709;BME280;35601;55.902;13.606;2023-04-19T10:08:49;102217.33;;;11.43;21.98
49709;BME280;35601;55.902;13.606;2023-04-19T10:11:11;102221.19;;;11.21;22.00
49709;BME280;35601;55.902;13.606;2023-04-19T10:13:39;102210.32;;;11.64;21.97
49709;BME280;35601;55.902;13.606;2023-04-19T10:16:02;102218.97;;;11.07;21.95
49709;BME280;35601;55.902;13.606;2023-04-19T10:18:28;102206.43;;;11.19;21.72
49709;BME280;35601;55.902;13.606;2023-04-19T10:20:55;102205.87;;;10.94;22.31
49709;BME280;35601;55.902;13.606;2023-04-19T10:23:17;102197.40;;;10.26;22.54
49709;BME280;35601;55.902;13.606;2023-04-19T10:25:45;102206.61;;;10.73;22.98
49709;BME280;35601;55.902;13.606;2023-04-19T10:28:08;102187.92;;;11.28;22.52
49709;BME280;35601;55.902;13.606;2023-04-19T10:30:33;102186.02;;;11.60;21.76
49709;BME280;35601;55.902;13.606;2023-04-19T10:32:59;102190.16;;;11.57;22.09
49709;BME280;35601;55.902;13.606;2023-04-19T10:35:25;102192.59;;;11.50;22.56
49709;BME280;35601;55.902;13.606;2023-04-19T10:38:04;102185.79;;;12.11;22.22
49709;BME280;35601;55.902;13.606;2023-04-19T10:47:40;102171.54;;;12.05;21.14
49709;BME280;35601;55.902;13.606;2023-04-19T10:49:54;102178.88;;;12.08;20.85
49709;BME280;35601;55.902;13.606;2023-04-19T10:52:27;102166.17;;;11.85;20.29
49709;BME280;35601;55.902;13.606;2023-04-19T10:54:54;102171.48;;;12.23;21.25
49709;BME280;35601;55.902;13.606;2023-04-19T10:57:10;102156.28;;;11.85;20.09
49709;BME280;35601;55.902;13.606;2023-04-19T10:59:36;102155.60;;;11.90;20.88
49709;BME280;35601;55.902;13.606;2023-04-19T11:02:01;102143.54;;;12.69;20.74
49709;BME280;35601;55.902;13.606;2023-04-19T11:06:59;102132.54;;;12.76;19.61
49709;BME280;35601;55.902;13.606;2023-04-19T11:09:21;102142.36;;;12.96;19.82
49709;BME280;35601;55.902;13.606;2023-04-19T11:11:41;102136.82;;;13.40;20.29
49709;BME280;35601;55.902;13.606;2023-04-19T11:14:07;102132.77;;;13.16;19.85
49709;BME280;35601;55.902;13.606;2023-04-19T11:16:31;102113.68;;;13.28;19.86
49709;BME280;35601;55.902;13.606;2023-04-19T11:18:57;102122.45;;;13.14;19.35
49709;BME280;35601;55.902;13.606;2023-04-19T11:21:22;102113.08;;;12.98;19.96
49709;BME280;35601;55.902;13.606;2023-04-19T11:23:47;102119.96;;;13.11;20.25
49709;BME280;35601;55.902;13.606;2023-04-19T11:26:13;102113.13;;;13.26;19.27
49709;BME280;35601;55.902;13.606;2023-04-19T11:28:38;102112.12;;;13.47;19.41
49709;BME280;35601;55.902;13.606;2023-04-19T11:31:03;102109.10;;;12.48;19.56
49709;BME280;35601;55.902;13.606;2023-04-19T11:33:32;102102.46;;;12.98;19.98
49709;BME280;35601;55.902;13.606;2023-04-19T11:35:53;102101.77;;;13.28;20.21
49709;BME280;35601;55.902;13.606;2023-04-19T11:38:18;102114.65;;;13.49;19.84
49709;BME280;35601;55.902;13.606;2023-04-19T11:40:44;102108.18;;;13.01;20.54
49709;BME280;35601;55.902;13.606;2023-04-19T11:43:09;102104.88;;;13.28;21.01
49709;BME280;35601;55.902;13.606;2023-04-19T11:45:35;102099.81;;;13.30;20.33
49709;BME280;35601;55.902;13.606;2023-04-19T11:48:03;102117.33;;;13.52;19.74
49709;BME280;35601;55.902;13.606;2023-04-19T11:50:31;102095.61;;;12.81;19.97
49709;BME280;35601;55.902;13.606;2023-04-19T11:52:49;102093.01;;;12.11;20.14
49709;BME280;35601;55.902;13.606;2023-04-19T11:55:20;102085.86;;;12.39;20.17
49709;BME280;35601;55.902;13.606;2023-04-19T11:57:42;102093.74;;;12.64;20.00
49709;BME280;35601;55.902;13.606;2023-04-19T12:00:07;102096.74;;;13.08;20.61
49709;BME280;35601;55.902;13.606;2023-04-19T12:02:30;102106.20;;;13.04;20.88
49709;BME280;35601;55.902;13.606;2023-04-19T12:07:21;102102.64;;;12.62;20.53
49709;BME280;35601;55.902;13.606;2023-04-19T12:09:48;102096.77;;;12.38;21.26
49709;BME280;35601;55.902;13.606;2023-04-19T12:12:11;102087.05;;;13.18;20.09
49709;BME280;35601;55.902;13.606;2023-04-19T12:14:36;102091.58;;;12.75;20.36
49709;BME280;35601;55.902;13.606;2023-04-19T12:17:08;102091.87;;;12.83;20.95
49709;BME280;35601;55.902;13.606;2023-04-19T12:19:27;102080.04;;;12.59;20.27
49709;BME280;35601;55.902;13.606;2023-04-19T12:21:52;102091.97;;;13.07;19.79
49709;BME280;35601;55.902;13.606;2023-04-19T12:24:17;102089.60;;;12.75;20.16
49709;BME280;35601;55.902;13.606;2023-04-19T12:26:52;102082.82;;;12.57;20.78
49709;BME280;35601;55.902;13.606;2023-04-19T12:29:07;102071.54;;;12.32;20.76
49709;BME280;35601;55.902;13.606;2023-04-19T12:31:33;102068.98;;;12.16;20.56
49709;BME280;35601;55.902;13.606;2023-04-19T12:33:59;102065.10;;;12.66;20.29
49709;BME280;35601;55.902;13.606;2023-04-19T12:36:23;102068.34;;;12.56;20.09
49709;BME280;35601;55.902;13.606;2023-04-19T12:38:48;102075.23;;;12.50;20.06
49709;BME280;35601;55.902;13.606;2023-04-19T12:41:15;102070.19;;;12.09;19.82
49709;BME280;35601;55.902;13.606;2023-04-19T12:43:38;102065.05;;;11.83;20.15
49709;BME280;35601;55.902;13.606;2023-04-19T12:46:04;102064.22;;;11.97;20.37
49709;BME280;35601;55.902;13.606;2023-04-19T12:48:29;102044.95;;;11.43;20.55
49709;BME280;35601;55.902;13.606;2023-04-19T12:50:56;102069.55;;;12.02;20.76
49709;BME280;35601;55.902;13.606;2023-04-19T12:53:21;102065.06;;;12.47;20.45
49709;BME280;35601;55.902;13.606;2023-04-19T12:55:45;102060.37;;;12.58;20.16
49709;BME280;35601;55.902;13.606;2023-04-19T12:58:10;102054.07;;;12.83;19.25